createdAt,value
2024-03-02T00:01:56.505Z,92.40
2024-03-02T00:04:24.820Z,92.40
2024-03-02T00:06:59.443Z,92.40
2024-03-02T00:09:27.942Z,92.40
2024-03-02T00:11:56.288Z,92.40
2024-03-02T00:14:26.523Z,92.50
2024-03-02T00:17:07.035Z,92.50
2024-03-02T00:19:35.364Z,92.50
2024-03-02T00:22:04.814Z,92.50
2024-03-02T00:24:37.492Z,92.60
2024-03-02T00:27:09.825Z,92.60
2024-03-02T00:29:38.204Z,92.60
2024-03-02T00:32:15.347Z,92.90
2024-03-02T00:34:43.738Z,92.60
2024-03-02T00:37:14.078Z,92.70
2024-03-02T00:39:42.595Z,92.60
2024-03-02T00:42:11.376Z,92.70
2024-03-02T00:44:39.751Z,92.60
2024-03-02T00:47:08.083Z,92.70
2024-03-02T00:49:38.995Z,92.70
2024-03-02T00:52:09.487Z,92.70
2024-03-02T00:54:37.870Z,92.70
2024-03-02T00:57:07.165Z,92.70
2024-03-02T00:59:35.553Z,92.70
2024-03-02T01:02:03.902Z,92.70
2024-03-02T01:04:32.340Z,92.80
2024-03-02T01:07:01.247Z,92.80
2024-03-02T01:09:29.671Z,92.70
2024-03-02T01:11:58.149Z,93.10
2024-03-02T01:14:26.503Z,92.80
2024-03-02T01:16:54.809Z,92.80
2024-03-02T01:19:23.820Z,92.80
2024-03-02T01:21:52.911Z,92.80
2024-03-02T01:24:21.298Z,92.80
2024-03-02T01:26:49.661Z,92.80
2024-03-02T01:29:18.058Z,92.80
2024-03-02T01:31:46.453Z,92.80
2024-03-02T01:34:15.028Z,92.70
2024-03-02T01:36:43.453Z,92.70
2024-03-02T01:39:11.993Z,92.70
2024-03-02T01:41:40.414Z,92.70
2024-03-02T01:44:09.193Z,92.70
2024-03-02T01:46:38.199Z,92.70
2024-03-02T01:49:06.928Z,92.70
2024-03-02T01:51:35.456Z,92.70
2024-03-02T01:54:03.788Z,92.70
2024-03-02T01:56:32.134Z,92.70
2024-03-02T01:59:01.052Z,92.70
2024-03-02T02:01:29.486Z,92.70
2024-03-02T02:03:58.019Z,92.70
2024-03-02T02:06:26.408Z,92.70
2024-03-02T02:08:54.855Z,92.70
2024-03-02T02:11:23.273Z,92.60
2024-03-02T02:13:51.625Z,92.70
2024-03-02T02:16:19.981Z,92.70
2024-03-02T02:18:48.325Z,92.70
2024-03-02T02:21:16.744Z,92.70
2024-03-02T02:23:48.698Z,92.70
2024-03-02T02:26:17.091Z,92.70
2024-03-02T02:28:49.231Z,92.70
2024-03-02T02:31:17.629Z,92.60
2024-03-02T02:33:45.997Z,92.70
2024-03-02T02:36:14.415Z,92.70
2024-03-02T02:38:50.181Z,92.70
2024-03-02T02:41:18.554Z,92.70
2024-03-02T02:43:47.078Z,92.80
2024-03-02T02:46:15.423Z,92.90
2024-03-02T02:48:43.798Z,92.90
2024-03-02T02:51:12.133Z,92.90
2024-03-02T02:53:42.692Z,92.90
2024-03-02T02:56:11.603Z,93.00
2024-03-02T02:58:39.982Z,93.10
2024-03-02T03:01:08.390Z,93.00
2024-03-02T03:03:36.951Z,93.20
2024-03-02T03:06:05.612Z,93.30
2024-03-02T03:08:33.981Z,93.40
2024-03-02T03:11:02.366Z,93.50
2024-03-02T03:13:30.755Z,93.60
2024-03-02T03:15:59.219Z,93.60
2024-03-02T03:18:27.668Z,93.70
2024-03-02T03:20:56.269Z,93.70
2024-03-02T03:23:24.610Z,93.80
2024-03-02T03:25:53.059Z,93.80
2024-03-02T03:28:21.398Z,93.90
2024-03-02T03:30:49.848Z,93.80
2024-03-02T03:33:18.265Z,93.90
2024-03-02T03:35:46.649Z,94.00
2024-03-02T03:38:14.984Z,94.00
2024-03-02T03:40:43.528Z,94.00
2024-03-02T03:43:11.840Z,94.00
2024-03-02T03:45:40.242Z,94.00
2024-03-02T03:48:08.858Z,94.00
2024-03-02T03:50:37.228Z,94.00
2024-03-02T03:53:05.943Z,94.10
2024-03-02T03:55:34.310Z,94.00
2024-03-02T03:58:02.882Z,94.10
2024-03-02T04:00:31.263Z,94.10
2024-03-02T04:02:59.738Z,94.10
2024-03-02T04:05:28.168Z,94.10
2024-03-02T04:07:56.520Z,94.10
2024-03-02T04:10:24.935Z,94.20
2024-03-02T04:12:53.357Z,94.10
2024-03-02T04:15:22.077Z,94.10
2024-03-02T04:17:50.489Z,94.50
2024-03-02T04:20:18.931Z,94.10
2024-03-02T04:22:47.286Z,94.10
2024-03-02T04:25:15.703Z,94.20
2024-03-02T04:27:44.163Z,94.10
2024-03-02T04:30:13.298Z,94.10
2024-03-02T04:32:41.697Z,94.10
2024-03-02T04:35:13.069Z,94.10
2024-03-02T04:37:41.431Z,94.10
2024-03-02T04:40:10.797Z,94.40
2024-03-02T04:42:39.714Z,94.00
2024-03-02T04:45:09.485Z,94.00
2024-03-02T04:47:37.834Z,94.00
2024-03-02T04:50:07.238Z,93.90
2024-03-02T04:52:35.584Z,93.90
2024-03-02T04:55:27.215Z,94.00
2024-03-02T04:57:57.334Z,94.00
2024-03-02T05:00:25.839Z,94.30
2024-03-02T05:02:54.228Z,94.00
2024-03-02T05:05:22.637Z,94.00
2024-03-02T05:07:51.051Z,93.90
2024-03-02T05:10:19.442Z,93.90
2024-03-02T05:12:47.908Z,94.00
2024-03-02T05:15:17.426Z,94.00
2024-03-02T05:17:45.968Z,93.90
2024-03-02T05:20:14.474Z,93.90
2024-03-02T05:22:42.876Z,93.90
2024-03-02T05:25:14.095Z,93.90
2024-03-02T05:27:42.633Z,93.90
2024-03-02T05:30:12.191Z,93.90
2024-03-02T05:32:40.575Z,93.90
2024-03-02T05:35:10.263Z,94.00
2024-03-02T05:37:38.591Z,94.00
2024-03-02T05:40:08.415Z,94.00
2024-03-02T05:42:37.349Z,94.00
2024-03-02T05:45:06.608Z,94.00
2024-03-02T05:47:35.352Z,94.00
2024-03-02T05:50:06.155Z,94.00
2024-03-02T05:52:34.523Z,94.00
2024-03-02T05:55:03.226Z,94.10
2024-03-02T05:57:47.705Z,94.00
2024-03-02T06:00:19.513Z,94.10
2024-03-02T06:02:48.093Z,94.10
2024-03-02T06:05:17.771Z,94.10
2024-03-02T06:07:46.209Z,94.10
2024-03-02T06:10:14.976Z,94.20
2024-03-02T06:12:43.710Z,94.20
2024-03-02T06:15:13.261Z,94.20
2024-03-02T06:17:41.652Z,94.20
2024-03-02T06:20:11.158Z,94.20
2024-03-02T06:22:39.790Z,94.20
2024-03-02T06:25:08.784Z,94.60
2024-03-02T06:27:37.405Z,94.30
2024-03-02T06:30:06.736Z,94.30
2024-03-02T06:32:35.238Z,94.30
2024-03-02T06:35:03.829Z,94.20
2024-03-02T06:37:32.149Z,94.30
2024-03-02T06:40:00.676Z,94.30
2024-03-02T06:42:29.372Z,94.40
2024-03-02T06:44:58.268Z,94.40
2024-03-02T06:47:26.666Z,94.40
2024-03-02T06:49:55.533Z,94.40
2024-03-02T06:52:25.182Z,94.40
2024-03-02T06:54:53.953Z,94.40
2024-03-02T06:57:23.198Z,94.40
2024-03-02T06:59:53.653Z,94.40
2024-03-02T07:02:22.339Z,94.40
2024-03-02T07:04:51.068Z,94.40
2024-03-02T07:07:19.582Z,94.30
2024-03-02T07:09:48.183Z,94.30
2024-03-02T07:12:16.927Z,94.30
2024-03-02T07:15:03.780Z,94.30
2024-03-02T07:17:34.558Z,94.30
2024-03-02T07:20:02.902Z,94.20
2024-03-02T07:22:31.258Z,94.20
2024-03-02T07:24:59.621Z,94.10
2024-03-02T07:27:28.250Z,94.20
2024-03-02T07:29:56.596Z,94.00
2024-03-02T07:32:24.914Z,94.00
2024-03-02T07:34:53.350Z,93.70
2024-03-02T07:37:22.608Z,93.60
2024-03-02T07:39:51.253Z,93.50
2024-03-02T07:42:19.961Z,93.40
2024-03-02T07:44:48.347Z,93.50
2024-03-02T07:47:16.845Z,93.50
2024-03-02T07:49:47.737Z,93.30
2024-03-02T07:52:16.131Z,93.20
2024-03-02T07:54:44.573Z,93.20
2024-03-02T07:57:13.034Z,93.10
2024-03-02T07:59:41.501Z,93.00
2024-03-02T08:02:09.832Z,92.90
2024-03-02T08:04:39.315Z,92.90
2024-03-02T08:07:08.552Z,92.80
2024-03-02T08:09:36.982Z,92.80
2024-03-02T08:12:05.727Z,92.90
2024-03-02T08:14:34.059Z,92.80
2024-03-02T08:17:03.860Z,92.90
2024-03-02T08:19:32.231Z,92.80
2024-03-02T08:22:01.923Z,92.80
2024-03-02T08:24:30.519Z,92.70
2024-03-02T08:26:58.929Z,92.70
2024-03-02T08:29:27.493Z,92.70
2024-03-02T08:31:56.881Z,92.70
2024-03-02T08:34:25.180Z,92.60
2024-03-02T08:36:53.712Z,92.10
2024-03-02T08:39:23.055Z,92.10
2024-03-02T08:41:51.457Z,92.10
2024-03-02T08:44:19.878Z,92.10
2024-03-02T08:46:48.639Z,92.20
2024-03-02T08:49:17.086Z,92.30
2024-03-02T08:51:45.484Z,92.10
2024-03-02T08:54:13.918Z,92.50
2024-03-02T08:56:42.281Z,92.40
2024-03-02T08:59:10.631Z,92.00
2024-03-02T09:01:43.802Z,91.80
2024-03-02T09:04:12.270Z,91.70
2024-03-02T09:06:40.975Z,91.10
2024-03-02T09:09:09.390Z,90.70
2024-03-02T09:11:38.381Z,89.40
2024-03-02T09:14:07.464Z,88.40
2024-03-02T09:16:35.881Z,85.40
2024-03-02T09:19:04.329Z,83.70
2024-03-02T09:21:32.729Z,81.80
2024-03-02T09:24:01.643Z,82.70
2024-03-02T09:26:30.066Z,82.30
2024-03-02T09:28:58.391Z,82.60
2024-03-02T09:31:26.885Z,81.70
2024-03-02T09:33:55.404Z,79.80
2024-03-02T09:36:25.370Z,77.90
2024-03-02T09:38:53.938Z,75.90
2024-03-02T09:41:22.631Z,76.00
2024-03-02T09:43:51.676Z,74.10
2024-03-02T09:46:21.915Z,75.60
2024-03-02T09:48:50.271Z,75.40
2024-03-02T09:51:21.631Z,75.70
2024-03-02T09:53:51.010Z,73.90
2024-03-02T09:56:20.558Z,71.50
2024-03-02T09:58:49.191Z,73.10
2024-03-02T10:01:17.824Z,72.30
2024-03-02T10:03:52.302Z,71.90
2024-03-02T10:06:29.611Z,71.00
2024-03-02T10:08:58.890Z,68.80
2024-03-02T10:11:36.675Z,69.50
2024-03-02T10:14:16.003Z,67.90
2024-03-02T10:16:47.235Z,64.30
2024-03-02T10:19:23.826Z,65.20
2024-03-02T10:21:57.022Z,63.10
2024-03-02T10:24:25.508Z,61.60
2024-03-02T10:26:55.456Z,59.50
2024-03-02T10:29:23.959Z,58.40
2024-03-02T10:31:52.316Z,58.70
2024-03-02T10:34:21.110Z,56.40
2024-03-02T10:36:50.432Z,53.50
2024-03-02T10:39:20.024Z,54.30
2024-03-02T10:41:51.983Z,52.80
2024-03-02T10:44:21.404Z,49.30
2024-03-02T10:46:53.093Z,47.90
2024-03-02T10:49:24.237Z,46.60
2024-03-02T10:51:52.704Z,47.20
2024-03-02T10:54:21.276Z,47.90
2024-03-02T10:56:49.967Z,46.60
2024-03-02T10:59:37.194Z,46.90
2024-03-02T11:02:09.348Z,45.40
2024-03-02T11:04:38.381Z,45.30
2024-03-02T11:07:12.815Z,45.60
2024-03-02T11:09:56.971Z,46.50
2024-03-02T11:12:47.734Z,45.70
2024-03-02T11:15:23.845Z,46.00
2024-03-02T11:17:52.815Z,46.40
2024-03-02T11:20:22.649Z,46.00
2024-03-02T11:22:51.300Z,46.70
2024-03-02T11:25:30.530Z,47.20
2024-03-02T11:27:58.955Z,46.40
2024-03-02T11:30:52.591Z,44.50
2024-03-02T11:33:27.815Z,44.10
2024-03-02T11:35:58.237Z,45.10
2024-03-02T11:38:31.647Z,45.20
2024-03-02T11:41:01.758Z,44.30
2024-03-02T11:43:34.578Z,43.70
2024-03-02T11:46:09.340Z,43.70
2024-03-02T11:48:40.279Z,43.70
2024-03-02T11:51:08.776Z,43.90
2024-03-02T11:53:42.294Z,42.20
2024-03-02T11:56:13.997Z,41.60
2024-03-02T11:58:43.697Z,42.40
2024-03-02T12:01:13.354Z,42.30
2024-03-02T12:03:42.042Z,42.20
2024-03-02T12:06:11.712Z,42.70
2024-03-02T12:08:41.061Z,41.30
2024-03-02T12:11:09.427Z,42.10
2024-03-02T12:13:37.839Z,42.10
2024-03-02T12:16:07.393Z,41.60
2024-03-02T12:18:36.006Z,42.40
2024-03-02T12:21:06.288Z,42.40
2024-03-02T12:23:35.028Z,42.70
2024-03-02T12:26:03.543Z,43.30
2024-03-02T12:28:32.603Z,43.30
2024-03-02T12:31:02.349Z,43.70
2024-03-02T12:33:32.140Z,44.00
2024-03-02T12:36:00.910Z,44.10
2024-03-02T12:38:29.636Z,44.60
2024-03-02T12:40:58.469Z,44.90
2024-03-02T12:43:26.806Z,44.60
2024-03-02T12:45:58.251Z,45.20
2024-03-02T12:48:27.112Z,44.80
2024-03-02T12:50:55.589Z,44.10
2024-03-02T12:53:24.791Z,44.10
2024-03-02T12:55:53.512Z,43.70
2024-03-02T12:58:24.988Z,43.90
2024-03-02T13:01:08.277Z,43.80
2024-03-02T13:03:41.028Z,44.40
2024-03-02T13:06:10.260Z,44.50
2024-03-02T13:08:38.756Z,44.30
2024-03-02T13:11:09.348Z,44.10
2024-03-02T13:13:37.812Z,43.70
2024-03-02T13:16:12.310Z,43.80
2024-03-02T13:18:44.142Z,44.20
2024-03-02T13:21:12.510Z,44.50
2024-03-02T13:23:40.857Z,44.70
2024-03-02T13:26:09.881Z,44.70
2024-03-02T13:28:38.288Z,44.40
2024-03-02T13:31:07.088Z,44.90
2024-03-02T13:33:35.726Z,44.20
2024-03-02T13:36:05.175Z,44.50
2024-03-02T13:38:33.579Z,45.00
2024-03-02T13:41:03.242Z,45.20
2024-03-02T13:43:34.442Z,44.30
2024-03-02T13:46:04.499Z,44.30
2024-03-02T13:48:33.378Z,44.30
2024-03-02T13:51:01.776Z,44.00
2024-03-02T13:53:30.714Z,44.30
2024-03-02T13:55:59.101Z,44.80
2024-03-02T13:58:27.446Z,45.50
2024-03-02T14:00:56.031Z,45.50
2024-03-02T14:03:24.660Z,45.20
2024-03-02T14:05:55.112Z,45.70
2024-03-02T14:08:23.449Z,45.60
2024-03-02T14:10:52.316Z,45.40
2024-03-02T14:13:20.825Z,45.30
2024-03-02T14:15:49.307Z,45.10
2024-03-02T14:18:17.684Z,45.10
2024-03-02T14:20:46.823Z,44.50
2024-03-02T14:23:15.313Z,44.20
2024-03-02T14:25:43.689Z,43.80
2024-03-02T14:28:36.271Z,43.50
2024-03-02T14:31:03.191Z,43.10
2024-03-02T14:33:33.206Z,42.60
2024-03-02T14:36:02.071Z,43.00
2024-03-02T14:38:31.363Z,42.50
2024-03-02T14:40:59.793Z,42.90
2024-03-02T14:43:28.248Z,42.70
2024-03-02T14:45:57.335Z,42.00
2024-03-02T14:48:25.862Z,41.60
2024-03-02T14:50:54.535Z,42.00
2024-03-02T14:53:22.940Z,42.50
2024-03-02T14:55:51.944Z,43.10
2024-03-02T14:58:20.386Z,43.50
2024-03-02T15:00:49.041Z,44.00
2024-03-02T15:03:17.603Z,44.20
2024-03-02T15:05:46.045Z,43.50
2024-03-02T15:08:14.437Z,42.80
2024-03-02T15:10:45.769Z,42.90
2024-03-02T15:13:14.978Z,43.30
2024-03-02T15:15:43.910Z,43.90
2024-03-02T15:18:12.390Z,44.70
2024-03-02T15:20:40.802Z,45.50
2024-03-02T15:23:09.155Z,46.30
2024-03-02T15:25:37.580Z,46.80
2024-03-02T15:28:06.907Z,47.50
2024-03-02T15:30:35.919Z,47.80
2024-03-02T15:33:04.685Z,48.40
2024-03-02T15:35:33.177Z,48.80
2024-03-02T15:38:01.614Z,49.30
2024-03-02T15:40:30.673Z,49.80
2024-03-02T15:42:59.048Z,50.40
2024-03-02T15:45:35.543Z,51.00
2024-03-02T15:48:04.450Z,51.20
2024-03-02T15:50:34.911Z,51.90
2024-03-02T15:53:06.635Z,52.30
2024-03-02T15:55:38.418Z,53.10
2024-03-02T15:58:08.280Z,53.50
2024-03-02T16:00:37.951Z,54.00
2024-03-02T16:03:06.769Z,54.40
2024-03-02T16:05:35.112Z,54.90
2024-03-02T16:08:03.547Z,55.00
2024-03-02T16:10:31.914Z,55.60
2024-03-02T16:13:02.367Z,55.70
2024-03-02T16:15:30.760Z,55.80
2024-03-02T16:18:01.008Z,56.20
2024-03-02T16:20:29.404Z,56.20
2024-03-02T16:22:57.784Z,56.40
2024-03-02T16:25:27.048Z,56.60
2024-03-02T16:27:55.535Z,56.90
2024-03-02T16:30:26.695Z,57.00
2024-03-02T16:32:55.050Z,57.20
2024-03-02T16:35:23.673Z,57.70
2024-03-02T16:37:52.103Z,58.10
2024-03-02T16:40:20.934Z,58.30
2024-03-02T16:42:49.337Z,58.40
2024-03-02T16:45:17.716Z,58.80
2024-03-02T16:47:46.094Z,59.20
2024-03-02T16:50:14.574Z,59.40
2024-03-02T16:52:42.906Z,59.70
2024-03-02T16:55:11.612Z,60.00
2024-03-02T16:57:39.967Z,60.00
2024-03-02T17:00:10.302Z,60.50
2024-03-02T17:02:38.632Z,60.50
2024-03-02T17:05:07.677Z,60.80
2024-03-02T17:07:36.293Z,61.20
2024-03-02T17:10:07.033Z,61.50
2024-03-02T17:12:35.578Z,61.80
2024-03-02T17:15:04.017Z,62.10
2024-03-02T17:17:32.513Z,62.30
2024-03-02T17:20:03.661Z,62.70
2024-03-02T17:22:33.759Z,62.80
2024-03-02T17:25:02.339Z,62.90
2024-03-02T17:27:33.271Z,63.20
2024-03-02T17:30:01.821Z,63.30
2024-03-02T17:32:30.735Z,63.60
2024-03-02T17:34:59.173Z,63.70
2024-03-02T17:37:27.554Z,63.90
2024-03-02T17:39:56.962Z,64.20
2024-03-02T17:42:25.421Z,64.50
2024-03-02T17:44:53.852Z,64.70
2024-03-02T17:47:22.288Z,64.80
2024-03-02T17:49:52.139Z,65.00
2024-03-02T17:52:20.520Z,65.30
2024-03-02T17:54:49.030Z,65.50
2024-03-02T17:57:17.470Z,65.70
2024-03-02T17:59:46.119Z,65.70
2024-03-02T18:02:14.479Z,66.00
2024-03-02T18:04:44.283Z,66.20
2024-03-02T18:07:12.726Z,66.20
2024-03-02T18:09:41.148Z,66.50
2024-03-02T18:12:09.657Z,66.40
2024-03-02T18:14:40.501Z,66.80
2024-03-02T18:17:09.142Z,66.90
2024-03-02T18:19:37.522Z,66.90
2024-03-02T18:22:05.972Z,67.10
2024-03-02T18:24:37.493Z,67.10
2024-03-02T18:27:06.560Z,67.10
2024-03-02T18:29:34.938Z,67.30
2024-03-02T18:32:05.470Z,67.30
2024-03-02T18:34:37.084Z,67.30
2024-03-02T18:37:07.094Z,67.50
2024-03-02T18:39:35.576Z,67.50
2024-03-02T18:42:04.228Z,67.50
2024-03-02T18:44:32.586Z,67.90
2024-03-02T18:47:00.982Z,67.70
2024-03-02T18:49:29.456Z,68.10
2024-03-02T18:51:57.850Z,68.10
2024-03-02T18:54:26.305Z,68.20
2024-03-02T18:56:54.791Z,68.40
2024-03-02T18:59:23.186Z,68.50
2024-03-02T19:01:51.763Z,68.50
2024-03-02T19:04:20.911Z,68.70
2024-03-02T19:06:49.328Z,69.00
2024-03-02T19:09:17.737Z,69.20
2024-03-02T19:11:46.145Z,69.30
2024-03-02T19:14:14.476Z,69.50
2024-03-02T19:16:42.897Z,69.50
2024-03-02T19:19:11.252Z,69.90
2024-03-02T19:21:39.674Z,70.00
2024-03-02T19:24:08.243Z,69.90
2024-03-02T19:26:36.579Z,70.30
2024-03-02T19:29:04.933Z,70.20
2024-03-02T19:31:33.305Z,70.20
2024-03-02T19:34:01.728Z,70.40
2024-03-02T19:36:30.367Z,70.50
2024-03-02T19:38:58.720Z,70.80
2024-03-02T19:41:27.052Z,71.60
2024-03-02T19:43:56.254Z,71.00
2024-03-02T19:46:24.977Z,71.20
2024-03-02T19:48:53.469Z,71.40
2024-03-02T19:51:21.958Z,71.70
2024-03-02T19:53:50.372Z,72.10
2024-03-02T19:56:21.347Z,72.30
2024-03-02T19:58:49.784Z,72.70
2024-03-02T20:01:21.006Z,72.90
2024-03-02T20:03:52.126Z,73.20
2024-03-02T20:06:24.057Z,73.30
2024-03-02T20:08:52.404Z,73.30
2024-03-02T20:11:20.784Z,73.80
2024-03-02T20:13:49.133Z,74.10
2024-03-02T20:16:21.676Z,74.50
2024-03-02T20:18:50.594Z,75.20
2024-03-02T20:21:19.235Z,75.90
2024-03-02T20:23:47.619Z,76.50
2024-03-02T20:26:18.176Z,76.90
2024-03-02T20:28:47.981Z,77.90
2024-03-02T20:31:16.524Z,77.60
2024-03-02T20:33:44.964Z,78.10
2024-03-02T20:36:17.460Z,78.40
2024-03-02T20:38:46.352Z,78.70
2024-03-02T20:41:22.102Z,79.30
2024-03-02T20:43:50.532Z,79.90
2024-03-02T20:46:18.979Z,80.30
2024-03-02T20:48:48.941Z,80.70
2024-03-02T20:51:17.530Z,81.30
2024-03-02T20:53:45.892Z,81.60
2024-03-02T20:56:14.677Z,81.80
2024-03-02T20:58:43.564Z,81.60
2024-03-02T21:01:13.353Z,82.10
2024-03-02T21:03:42.776Z,82.60
2024-03-02T21:06:11.216Z,82.50
2024-03-02T21:08:39.583Z,83.10
2024-03-02T21:11:08.049Z,83.20
2024-03-02T21:13:36.457Z,83.50
2024-03-02T21:16:05.663Z,83.20
2024-03-02T21:18:34.231Z,83.50
2024-03-02T21:21:02.880Z,84.00
2024-03-02T21:23:35.896Z,84.40
2024-03-02T21:26:05.651Z,85.50
2024-03-02T21:28:34.026Z,85.50
2024-03-02T21:31:02.762Z,85.50
2024-03-02T21:33:31.367Z,85.50
2024-03-02T21:36:00.356Z,85.60
2024-03-02T21:38:28.749Z,85.70
2024-03-02T21:40:57.211Z,86.20
2024-03-02T21:43:25.570Z,87.10
2024-03-02T21:45:53.980Z,86.80
2024-03-02T21:48:24.335Z,87.10
2024-03-02T21:50:52.708Z,86.80
2024-03-02T21:53:21.059Z,87.00
2024-03-02T21:55:49.391Z,87.00
2024-03-02T21:58:17.796Z,87.00
2024-03-02T22:00:46.207Z,86.90
2024-03-02T22:03:14.674Z,86.90
2024-03-02T22:05:43.371Z,87.60
2024-03-02T22:08:11.730Z,87.60
2024-03-02T22:10:40.082Z,87.70
2024-03-02T22:13:08.450Z,88.10
2024-03-02T22:15:36.882Z,88.20
2024-03-02T22:18:05.403Z,88.20
2024-03-02T22:20:33.828Z,88.30
2024-03-02T22:23:02.178Z,88.30
2024-03-02T22:25:30.530Z,88.50
2024-03-02T22:27:59.012Z,88.70
2024-03-02T22:30:28.628Z,88.70
2024-03-02T22:33:00.520Z,88.90
2024-03-02T22:35:29.023Z,88.80
2024-03-02T22:37:57.386Z,88.90
2024-03-02T22:40:27.201Z,89.00
2024-03-02T22:42:55.630Z,88.90
2024-03-02T22:45:24.030Z,89.30
2024-03-02T22:47:56.429Z,89.40
2024-03-02T22:50:25.950Z,89.50
2024-03-02T22:52:54.303Z,89.50
2024-03-02T22:55:22.726Z,89.50
2024-03-02T22:57:51.634Z,89.80
2024-03-02T23:00:39.812Z,89.70
2024-03-02T23:03:08.674Z,89.80
2024-03-02T23:05:37.042Z,90.00
2024-03-02T23:08:05.627Z,90.00
2024-03-02T23:10:33.998Z,90.10
2024-03-02T23:13:02.516Z,90.10
2024-03-02T23:15:34.052Z,90.10
2024-03-02T23:18:02.434Z,90.30
2024-03-02T23:20:30.778Z,90.30
2024-03-02T23:22:59.129Z,90.30
2024-03-02T23:25:27.514Z,90.50
2024-03-02T23:27:55.896Z,90.40
2024-03-02T23:30:24.569Z,90.40
2024-03-02T23:32:53.522Z,90.50
2024-03-02T23:35:21.916Z,90.50
2024-03-02T23:37:53.452Z,90.50
2024-03-02T23:40:40.485Z,90.60
2024-03-02T23:43:10.512Z,90.60
2024-03-02T23:45:38.943Z,90.60
2024-03-02T23:48:11.936Z,90.70
2024-03-02T23:50:40.388Z,90.70
2024-03-02T23:53:08.857Z,90.90
2024-03-02T23:58:09.730Z,91.10
